Time;durP1;ratioP1;P1;durP2;ratioP2;P2;SDS_P1;SDS_P2;PMS_P1;PMS_P2;Temp;Humidity;BMP_temperature;BMP_pressure;BME280_temperature;BME280_humidity;BME280_pressure;Samples;Min_cycle;Max_cycle;Signal;HPM_P1;HPM_P2
2022/01/30 00:00:23;;;;;;;13.52;2.55;;;;;;;;;;6216589;23;20191;-61
2022/01/30 00:02:51;;;;;;;14.65;3.20;;;;;;;;;;6217088;23;20214;-61
2022/01/30 00:05:17;;;;;;;14.52;2.92;;;;;;;;;;6216883;23;20141;-61
2022/01/30 00:07:43;;;;;;;11.55;2.50;;;;;;;;;;6216723;23;20148;-61
2022/01/30 00:10:12;;;;;;;12.98;2.70;;;;;;;;;;6216610;23;20145;-61
2022/01/30 00:12:49;;;;;;;11.88;2.75;;;;;;;;;;6216935;23;20360;-61
2022/01/30 00:15:17;;;;;;;11.30;2.50;;;;;;;;;;6217279;23;20190;-61
2022/01/30 00:18:05;;;;;;;15.50;3.03;;;;;;;;;;6216973;23;20149;-61
2022/01/30 00:20:33;;;;;;;10.15;2.90;;;;;;;;;;6216889;23;20200;-61
2022/01/30 00:23:11;;;;;;;16.55;3.28;;;;;;;;;;6216456;23;20148;-61
2022/01/30 00:25:48;;;;;;;15.77;3.08;;;;;;;;;;6216800;23;20407;-61
2022/01/30 00:28:17;;;;;;;20.50;3.67;;;;;;;;;;6217183;23;20203;-61
2022/01/30 00:30:42;;;;;;;19.73;4.32;;;;;;;;;;6216645;23;20224;-60
2022/01/30 00:33:08;;;;;;;13.93;2.85;;;;;;;;;;6216456;23;20287;-60
2022/01/30 00:35:38;;;;;;;10.98;3.03;;;;;;;;;;6216390;23;20663;-60
2022/01/30 00:38:04;;;;;;;10.23;2.47;;;;;;;;;;6216724;23;20228;-61
2022/01/30 00:40:30;;;;;;;10.68;2.40;;;;;;;;;;6216519;23;20188;-61
2022/01/30 00:42:56;;;;;;;18.10;2.70;;;;;;;;;;6216393;23;20147;-61
2022/01/30 00:45:22;;;;;;;16.23;3.60;;;;;;;;;;6216031;23;20217;-60
2022/01/30 00:47:48;;;;;;;9.43;2.83;;;;;;;;;;6216364;23;20533;-60
2022/01/30 00:50:14;;;;;;;15.10;2.90;;;;;;;;;;6216211;23;20145;-60
2022/01/30 00:52:40;;;;;;;14.27;3.13;;;;;;;;;;6216568;23;20228;-60
2022/01/30 00:55:06;;;;;;;12.63;3.00;;;;;;;;;;6216147;23;20136;-60
2022/01/30 00:57:32;;;;;;;13.18;2.75;;;;;;;;;;6216349;23;20149;-60
2022/01/30 00:59:58;;;;;;;15.45;3.15;;;;;;;;;;6216015;23;20177;-61
2022/01/30 01:02:24;;;;;;;16.23;2.97;;;;;;;;;;6216210;23;20144;-60
2022/01/30 01:04:49;;;;;;;12.13;3.22;;;;;;;;;;6216146;23;20141;-61
2022/01/30 01:07:20;;;;;;;9.73;2.40;;;;;;;;;;6216460;23;20430;-61
2022/01/30 01:13:00;;;;;;;13.45;2.78;;;;;;;;;;6216182;23;20143;-60
2022/01/30 01:23:24;;;;;;;11.20;2.63;;;;;;;;;;6216256;23;20144;-60
2022/01/30 01:23:49;;;;;;;9.43;2.17;;;;;;;;;;6215997;23;20228;-60
2022/01/30 01:26:16;;;;;;;17.13;2.50;;;;;;;;;;6216295;23;20199;-61
2022/01/30 01:28:42;;;;;;;16.90;3.08;;;;;;;;;;6216391;23;20494;-61
2022/01/30 01:31:08;;;;;;;13.10;3.08;;;;;;;;;;6216024;23;20541;-61
2022/01/30 01:33:59;;;;;;;21.33;3.17;;;;;;;;;;6216075;23;20198;-60
2022/01/30 01:36:25;;;;;;;12.98;3.28;;;;;;;;;;6216392;23;20137;-59
2022/01/30 01:38:51;;;;;;;14.98;2.72;;;;;;;;;;6215924;23;20584;-59
2022/01/30 01:41:20;;;;;;;9.60;2.17;;;;;;;;;;6216130;23;20148;-60
2022/01/30 01:43:48;;;;;;;14.90;2.78;;;;;;;;;;6216522;23;20493;-60
2022/01/30 01:46:19;;;;;;;9.02;2.25;;;;;;;;;;6216429;23;20165;-61
2022/01/30 01:48:47;;;;;;;9.15;2.90;;;;;;;;;;6216450;23;20533;-60
2022/01/30 01:51:18;;;;;;;12.07;2.70;;;;;;;;;;6216236;23;20508;-60
2022/01/30 01:53:45;;;;;;;15.63;3.53;;;;;;;;;;6216407;23;20434;-60
2022/01/30 01:56:14;;;;;;;18.08;3.72;;;;;;;;;;6216149;23;20210;-61
2022/01/30 01:58:40;;;;;;;10.20;2.25;;;;;;;;;;6217874;23;20181;-61
2022/01/30 02:01:06;;;;;;;9.07;2.03;;;;;;;;;;6218719;23;20595;-61
2022/01/30 02:03:34;;;;;;;9.63;2.13;;;;;;;;;;6218638;23;20447;-60
2022/01/30 02:06:02;;;;;;;9.82;2.67;;;;;;;;;;6218793;23;20141;-61
2022/01/30 02:08:33;;;;;;;10.25;2.70;;;;;;;;;;6218823;23;20145;-60
2022/01/30 02:11:27;;;;;;;8.80;2.58;;;;;;;;;;6219795;23;20133;-61
2022/01/30 02:14:16;;;;;;;12.65;3.13;;;;;;;;;;6218475;23;20445;-61
2022/01/30 02:25:13;;;;;;;19.98;3.13;;;;;;;;;;6218128;23;20431;-61
2022/01/30 02:27:39;;;;;;;13.52;2.72;;;;;;;;;;6218488;23;20204;-59
2022/01/30 02:30:18;;;;;;;15.07;3.13;;;;;;;;;;6217887;23;20156;-60
2022/01/30 02:32:45;;;;;;;22.48;3.88;;;;;;;;;;6218117;23;20133;-60
2022/01/30 02:35:11;;;;;;;11.70;2.97;;;;;;;;;;6218701;23;20206;-61
2022/01/30 02:37:37;;;;;;;18.13;3.78;;;;;;;;;;6218391;23;20145;-61
2022/01/30 02:40:07;;;;;;;13.82;3.38;;;;;;;;;;6218100;23;20175;-61
2022/01/30 02:42:35;;;;;;;13.38;3.20;;;;;;;;;;6217976;23;20137;-60
2022/01/30 02:45:07;;;;;;;18.90;4.40;;;;;;;;;;6218083;23;20152;-60
2022/01/30 02:50:16;;;;;;;15.90;4.10;;;;;;;;;;6222527;23;20445;-61
2022/01/30 02:52:44;;;;;;;11.15;2.58;;;;;;;;;;6217298;23;20537;-61
2022/01/30 02:55:11;;;;;;;13.77;2.95;;;;;;;;;;6217318;23;20151;-61
2022/01/30 02:57:36;;;;;;;14.68;2.85;;;6.10;99.90;;;;;;6217230;23;20144;-61
2022/01/30 03:00:08;;;;;;;14.48;3.30;;;6.10;99.90;;;;;;6217115;23;20661;-61
2022/01/30 03:02:33;;;;;;;17.33;3.53;;;6.10;99.90;;;;;;6217049;23;20152;-61
2022/01/30 03:04:59;;;;;;;11.38;3.40;;;6.10;99.90;;;;;;6218261;23;20348;-61
2022/01/30 03:07:24;;;;;;;20.30;3.58;;;6.10;99.90;;;;;;6217151;23;20294;-62
2022/01/30 03:09:50;;;;;;;9.77;2.63;;;6.10;99.90;;;;;;6217555;23;20497;-61
2022/01/30 03:12:15;;;;;;;19.88;3.53;;;6.10;99.90;;;;;;6217406;23;20145;-61
2022/01/30 03:14:42;;;;;;;17.58;4.57;;;6.10;99.90;;;;;;6217067;23;20137;-59
2022/01/30 03:17:07;;;;;;;15.88;3.72;;;6.20;99.90;;;;;;6217384;23;20441;-60
2022/01/30 03:19:33;;;;;;;18.50;3.83;;;6.20;99.90;;;;;;6217078;23;20179;-60
2022/01/30 03:21:59;;;;;;;19.02;3.55;;;6.20;99.90;;;;;;6216824;23;20137;-60
2022/01/30 03:24:24;;;;;;;20.77;4.50;;;6.20;99.90;;;;;;6215808;23;20575;-60
2022/01/30 03:26:50;;;;;;;16.55;3.78;;;6.20;99.90;;;;;;6216924;23;20484;-60
2022/01/30 03:29:15;;;;;;;19.83;5.07;;;6.20;99.90;;;;;;6217250;23;20153;-59
2022/01/30 03:31:41;;;;;;;18.92;4.07;;;6.20;99.90;;;;;;6217188;23;20565;-61
2022/01/30 03:34:09;;;;;;;18.92;3.83;;;6.20;99.90;;;;;;6216784;23;20439;-61
2022/01/30 03:36:35;;;;;;;23.55;4.18;;;6.20;99.90;;;;;;6216903;23;20153;-61
2022/01/30 03:39:01;;;;;;;10.85;2.90;;;6.20;99.90;;;;;;6217281;23;20490;-60
2022/01/30 03:41:26;;;;;;;22.05;4.45;;;6.20;99.90;;;;;;6217182;23;20220;-61
2022/01/30 03:43:52;;;;;;;24.67;4.43;;;6.20;99.90;;;;;;6216898;23;20141;-61
2022/01/30 03:46:19;;;;;;;15.38;3.30;;;6.30;99.90;;;;;;6216872;23;20533;-61
2022/01/30 03:48:45;;;;;;;23.38;4.80;;;6.30;99.90;;;;;;6216829;23;20203;-61
2022/01/30 03:51:11;;;;;;;18.02;3.35;;;6.30;99.90;;;;;;6216676;23;20145;-61
2022/01/30 03:53:36;;;;;;;16.42;3.47;;;6.30;99.90;;;;;;6216907;23;20191;-62
2022/01/30 03:56:02;;;;;;;9.75;2.92;;;6.40;99.90;;;;;;6216696;23;20230;-61
2022/01/30 03:58:28;;;;;;;19.63;3.95;;;6.30;99.90;;;;;;6216674;23;20180;-61
2022/01/30 04:00:54;;;;;;;15.77;3.60;;;6.30;99.90;;;;;;6216699;23;20137;-61
2022/01/30 04:03:19;;;;;;;14.75;3.40;;;6.30;99.90;;;;;;6216582;23;20487;-61
2022/01/30 04:05:45;;;;;;;18.92;4.60;;;6.30;99.90;;;;;;6216660;23;20140;-61
2022/01/30 04:08:10;;;;;;;16.45;3.65;;;6.30;99.90;;;;;;6216808;23;20156;-61
2022/01/30 04:10:37;;;;;;;24.13;4.03;;;6.30;99.90;;;;;;6216885;23;20448;-61
2022/01/30 04:13:03;;;;;;;19.73;4.18;;;6.30;99.90;;;;;;6216865;23;20149;-61
2022/01/30 04:15:29;;;;;;;12.48;4.15;;;6.30;99.90;;;;;;6216372;23;20580;-60
2022/01/30 04:17:55;;;;;;;23.52;5.07;;;6.30;99.90;;;;;;6216387;23;20283;-61
2022/01/30 04:20:20;;;;;;;14.82;3.42;;;6.30;99.90;;;;;;6214701;23;20240;-61
2022/01/30 04:22:46;;;;;;;24.90;5.15;;;6.30;99.90;;;;;;6216109;23;20234;-61
2022/01/30 04:25:11;;;;;;;26.85;4.88;;;6.30;99.90;;;;;;6216663;23;20195;-61
2022/01/30 04:27:37;;;;;;;21.08;5.28;;;6.30;99.90;;;;;;6216189;23;20151;-61
2022/01/30 04:30:04;;;;;;;25.02;4.97;;;6.30;99.90;;;;;;6216566;23;20145;-61
2022/01/30 04:32:30;;;;;;;25.20;4.88;;;6.30;99.90;;;;;;6216575;23;20144;-61
2022/01/30 04:34:59;;;;;;;21.15;4.95;;;6.30;99.90;;;;;;6217023;23;20153;-61
2022/01/30 04:38:32;;;;;;;21.92;4.93;;;6.30;99.90;;;;;;6216290;23;20145;-62
2022/01/30 04:40:45;;;;;;;20.30;4.63;;;6.30;99.90;;;;;;6209081;23;20274;-62
2022/01/30 04:54:51;;;;;;;27.67;5.28;;;6.30;99.90;;;;;;6216392;23;20182;-61
2022/01/30 04:57:03;;;;;;;24.17;4.82;;;6.30;99.90;;;;;;6216042;23;20558;-59
2022/01/30 04:59:49;;;;;;;22.30;4.50;;;6.30;99.90;;;;;;6216135;23;20191;-61
2022/01/30 05:05:23;;;;;;;27.33;5.57;;;6.30;99.90;;;;;;6216205;23;20645;-58
2022/01/30 05:07:49;;;;;;;22.58;4.60;;;6.30;99.90;;;;;;6216224;23;20432;-60
2022/01/30 05:10:15;;;;;;;26.45;5.20;;;6.30;99.90;;;;;;6216132;23;20227;-61
2022/01/30 05:12:50;;;;;;;26.85;4.97;;;6.20;99.90;;;;;;6216716;23;20232;-61
2022/01/30 05:15:20;;;;;;;24.15;4.32;;;6.20;99.90;;;;;;6216414;23;20179;-61
2022/01/30 05:17:46;;;;;;;20.50;4.43;;;6.20;99.90;;;;;;6216033;23;20164;-61
2022/01/30 05:20:13;;;;;;;22.70;5.95;;;6.20;99.90;;;;;;6216033;23;20200;-61
2022/01/30 05:22:38;;;;;;;19.38;4.15;;;6.20;99.90;;;;;;6216154;23;20215;-61
2022/01/30 05:25:04;;;;;;;24.40;4.72;;;6.20;99.90;;;;;;6216551;23;20153;-59
2022/01/30 05:27:30;;;;;;;18.92;4.35;;;6.20;99.90;;;;;;6216046;23;20223;-60
2022/01/30 05:29:56;;;;;;;16.88;3.92;;;6.20;99.90;;;;;;6215092;23;20484;-60
2022/01/30 05:32:22;;;;;;;17.83;3.85;;;6.10;99.90;;;;;;6217713;23;20499;-59
2022/01/30 05:34:48;;;;;;;25.55;4.68;;;6.10;99.90;;;;;;6218789;23;20191;-60
2022/01/30 05:37:17;;;;;;;29.75;5.05;;;6.10;99.90;;;;;;6218175;23;20149;-62
2022/01/30 05:39:42;;;;;;;18.73;4.43;;;6.10;99.90;;;;;;6218036;23;20161;-61
2022/01/30 05:42:09;;;;;;;20.20;4.35;;;6.00;99.90;;;;;;6218770;23;20153;-62
2022/01/30 05:47:10;;;;;;;25.88;5.55;;;6.00;99.90;;;;;;6218469;23;20176;-61
2022/01/30 05:49:37;;;;;;;23.98;4.43;;;6.00;99.90;;;;;;6217835;23;20164;-61
2022/01/30 05:52:03;;;;;;;22.15;5.05;;;6.00;99.90;;;;;;6218397;23;20501;-60
2022/01/30 05:54:28;;;;;;;17.67;3.58;;;6.00;99.90;;;;;;6219020;23;20180;-61
2022/01/30 05:56:53;;;;;;;22.30;5.35;;;6.00;99.90;;;;;;6218103;23;20144;-60
2022/01/30 05:59:19;;;;;;;28.08;6.55;;;6.00;99.90;;;;;;6217849;23;20184;-60
2022/01/30 06:01:44;;;;;;;22.75;4.80;;;6.00;99.90;;;;;;6218177;23;20148;-60
2022/01/30 06:04:10;;;;;;;17.75;5.50;;;5.90;99.90;;;;;;6218324;23;20145;-60
2022/01/30 06:06:35;;;;;;;25.20;5.05;;;5.90;99.90;;;;;;6218173;23;20156;-60
2022/01/30 06:09:18;;;;;;;19.38;4.53;;;5.90;99.90;;;;;;6218287;23;20436;-61
2022/01/30 06:11:44;;;;;;;16.15;3.65;;;5.90;99.90;;;;;;6218057;23;20542;-60
2022/01/30 06:14:10;;;;;;;23.75;4.32;;;5.90;99.90;;;;;;6217759;23;20145;-61
2022/01/30 06:16:36;;;;;;;16.30;3.63;;;5.90;99.90;;;;;;6217700;23;20627;-61
2022/01/30 06:19:01;;;;;;;22.70;4.82;;;5.90;99.90;;;;;;6216595;23;20164;-60
2022/01/30 06:21:28;;;;;;;18.52;4.65;;;5.90;99.90;;;;;;6218503;23;20159;-60
2022/01/30 06:23:53;;;;;;;12.57;2.60;;;5.90;99.90;;;;;;6217790;23;20183;-60
2022/01/30 06:26:19;;;;;;;19.52;4.00;;;5.90;99.90;;;;;;6218021;23;20172;-59
2022/01/30 06:28:44;;;;;;;21.63;4.50;;;5.90;99.90;;;;;;6217907;23;20141;-61
2022/01/30 06:31:10;;;;;;;23.15;4.18;;;5.90;99.90;;;;;;6217850;23;20539;-61
2022/01/30 06:33:35;;;;;;;18.88;4.25;;;5.90;99.90;;;;;;6217881;23;20141;-60
2022/01/30 06:36:01;;;;;;;24.17;4.50;;;5.80;99.90;;;;;;6217698;23;20141;-59
2022/01/30 06:38:26;;;;;;;19.52;3.38;;;5.80;99.90;;;;;;6217590;23;20173;-60
2022/01/30 06:40:52;;;;;;;18.58;3.80;;;5.80;99.90;;;;;;6217642;23;20141;-60
2022/01/30 06:43:17;;;;;;;15.98;3.30;;;5.80;99.90;;;;;;6217250;23;20144;-60
2022/01/30 06:45:43;;;;;;;28.38;5.13;;;5.80;99.90;;;;;;6217552;23;20147;-60
2022/01/30 06:48:09;;;;;;;21.30;4.22;;;5.70;99.90;;;;;;6217608;23;20563;-60
2022/01/30 06:50:34;;;;;;;21.55;4.45;;;5.70;99.90;;;;;;6217497;23;20592;-59
2022/01/30 06:53:00;;;;;;;16.17;4.10;;;5.70;99.90;;;;;;6217650;23;20141;-61
2022/01/30 06:55:25;;;;;;;23.70;4.13;;;5.70;99.90;;;;;;6217515;23;20155;-61
2022/01/30 06:57:51;;;;;;;19.55;4.20;;;5.70;99.90;;;;;;6217347;23;20148;-60
2022/01/30 07:00:17;;;;;;;21.67;5.35;;;5.70;99.90;;;;;;6217041;23;20184;-60
2022/01/30 07:02:42;;;;;;;25.77;4.90;;;5.70;99.90;;;;;;6217680;23;20145;-61
2022/01/30 07:05:08;;;;;;;20.17;5.30;;;5.70;99.90;;;;;;6217294;23;20233;-60
2022/01/30 07:07:33;;;;;;;21.27;4.10;;;5.70;99.90;;;;;;6217517;23;20194;-61
2022/01/30 07:09:59;;;;;;;19.13;4.45;;;5.60;99.90;;;;;;6217125;23;20583;-61
2022/01/30 07:12:24;;;;;;;20.10;4.50;;;5.60;99.90;;;;;;6217424;23;20557;-60
2022/01/30 07:14:50;;;;;;;15.02;3.20;;;5.60;99.90;;;;;;6217099;23;20545;-61
2022/01/30 07:17:15;;;;;;;18.10;3.97;;;5.60;99.90;;;;;;6217262;23;20660;-61
2022/01/30 07:19:41;;;;;;;18.15;4.03;;;5.60;99.90;;;;;;6217189;23;20180;-61
2022/01/30 07:22:07;;;;;;;31.15;5.07;;;5.60;99.90;;;;;;6217006;23;20152;-61
2022/01/30 07:24:33;;;;;;;22.02;5.43;;;5.60;99.90;;;;;;6217563;23;20169;-60
2022/01/30 07:26:59;;;;;;;21.00;3.80;;;5.60;99.90;;;;;;6217306;23;20148;-61
2022/01/30 07:29:25;;;;;;;21.35;4.65;;;5.60;99.90;;;;;;6216841;23;20152;-61
2022/01/30 07:31:50;;;;;;;26.10;4.25;;;5.60;99.90;;;;;;6216693;23;20600;-60
2022/01/30 07:34:16;;;;;;;14.73;4.20;;;5.60;99.90;;;;;;6217214;23;20145;-61
2022/01/30 07:36:42;;;;;;;23.15;4.63;;;5.60;99.90;;;;;;6216768;23;20203;-61
2022/01/30 07:39:11;;;;;;;26.52;5.10;;;5.60;99.90;;;;;;6217171;23;20196;-61
2022/01/30 07:41:37;;;;;;;25.70;4.78;;;5.60;99.90;;;;;;6216816;23;20579;-61
2022/01/30 07:44:03;;;;;;;20.30;4.07;;;5.50;99.90;;;;;;6216815;23;20220;-61
2022/01/30 07:46:29;;;;;;;24.60;4.57;;;5.50;99.90;;;;;;6215540;23;20149;-60
2022/01/30 07:48:55;;;;;;;22.23;4.53;;;5.50;99.90;;;;;;6216972;23;20156;-61
2022/01/30 07:51:21;;;;;;;28.83;5.15;;;5.60;99.90;;;;;;6216824;23;20615;-61
2022/01/30 07:53:46;;;;;;;21.05;3.90;;;5.60;99.90;;;;;;6216949;23;20145;-61
2022/01/30 07:56:12;;;;;;;23.98;4.32;;;5.60;99.90;;;;;;6216706;23;20157;-61
2022/01/30 07:58:38;;;;;;;20.70;4.05;;;5.50;99.90;;;;;;6216912;23;20176;-60
2022/01/30 08:01:03;;;;;;;20.25;4.30;;;5.50;99.90;;;;;;6216725;23;20141;-61
2022/01/30 08:03:29;;;;;;;24.30;5.70;;;5.50;99.90;;;;;;6216946;23;20549;-61
2022/01/30 08:05:54;;;;;;;17.48;4.05;;;5.50;99.90;;;;;;6216815;23;20487;-61
2022/01/30 08:08:20;;;;;;;21.30;4.65;;;5.50;99.90;;;;;;6216539;23;20191;-61
2022/01/30 08:10:46;;;;;;;18.75;4.30;;;5.50;99.90;;;;;;6216776;23;20168;-61
2022/01/30 08:13:11;;;;;;;27.88;5.63;;;5.50;99.90;;;;;;6216972;23;20222;-61
2022/01/30 08:15:37;;;;;;;22.85;5.07;;;5.50;99.90;;;;;;6216754;23;20165;-60
2022/01/30 08:18:02;;;;;;;20.25;4.22;;;5.50;99.90;;;;;;6216530;23;20203;-61
2022/01/30 08:20:28;;;;;;;22.33;4.15;;;5.50;99.90;;;;;;6216479;23;20156;-61
2022/01/30 08:22:55;;;;;;;20.67;4.18;;;5.50;99.90;;;;;;6216877;23;20215;-60
2022/01/30 08:25:22;;;;;;;21.95;4.60;;;5.50;99.90;;;;;;6216784;23;20141;-60
2022/01/30 08:27:49;;;;;;;25.17;4.43;;;5.50;99.90;;;;;;6216543;23;20145;-61
2022/01/30 08:30:14;;;;;;;20.67;3.72;;;5.50;99.90;;;;;;6216761;23;20164;-61
2022/01/30 08:32:41;;;;;;;25.75;6.25;;;5.60;99.90;;;;;;6216925;23;20224;-61
2022/01/30 08:35:08;;;;;;;22.10;5.25;;;5.60;99.90;;;;;;6216708;23;20223;-61
2022/01/30 08:37:35;;;;;;;21.58;4.97;;;5.60;99.90;;;;;;6216613;23;20156;-61
2022/01/30 08:40:03;;;;;;;29.00;4.80;;;5.60;99.90;;;;;;6216537;23;20169;-61
2022/01/30 08:42:28;;;;;;;22.10;5.03;;;5.60;99.90;;;;;;6216596;23;20147;-60
2022/01/30 08:44:54;;;;;;;18.38;4.68;;;5.70;99.90;;;;;;6216596;23;20145;-60
2022/01/30 08:47:19;;;;;;;20.23;4.03;;;5.70;99.90;;;;;;6216912;23;20149;-60
2022/01/30 08:49:45;;;;;;;20.90;4.80;;;5.70;99.90;;;;;;6216352;23;20149;-60
2022/01/30 08:52:14;;;;;;;22.75;4.70;;;5.70;99.90;;;;;;6217090;23;20567;-60
2022/01/30 08:54:40;;;;;;;24.23;4.72;;;5.60;99.90;;;;;;6216467;23;20557;-59
2022/01/30 08:57:05;;;;;;;33.83;5.45;;;5.70;99.90;;;;;;6216865;23;20159;-60
2022/01/30 08:59:31;;;;;;;25.25;5.90;;;5.70;99.90;;;;;;6216023;23;20184;-60
2022/01/30 09:01:56;;;;;;;25.48;5.53;;;5.70;99.90;;;;;;6216822;23;20436;-60
2022/01/30 09:04:22;;;;;;;12.75;3.80;;;5.70;99.90;;;;;;6216352;23;20153;-60
2022/01/30 09:06:47;;;;;;;19.08;4.72;;;5.70;99.90;;;;;;6216413;23;20152;-60
2022/01/30 09:09:13;;;;;;;20.33;4.38;;;5.70;99.90;;;;;;6216331;23;20175;-60
2022/01/30 09:11:38;;;;;;;22.25;5.72;;;5.70;99.90;;;;;;6216368;23;20481;-60
2022/01/30 09:14:04;;;;;;;21.50;4.75;;;5.70;99.90;;;;;;6216494;23;20355;-61
2022/01/30 09:16:29;;;;;;;27.75;6.07;;;5.70;99.90;;;;;;6216350;23;20152;-61
2022/01/30 09:18:56;;;;;;;33.35;5.85;;;5.70;99.90;;;;;;6216267;23;20172;-61
2022/01/30 09:21:22;;;;;;;21.73;5.03;;;5.70;99.90;;;;;;6216372;23;20145;-60
2022/01/30 09:23:47;;;;;;;22.02;4.55;;;5.70;99.90;;;;;;6216535;23;20452;-60
2022/01/30 09:26:13;;;;;;;23.83;5.75;;;5.70;99.90;;;;;;6215927;23;20148;-60
2022/01/30 09:28:38;;;;;;;23.15;5.32;;;5.70;99.90;;;;;;6215988;23;20420;-61
2022/01/30 09:31:04;;;;;;;22.55;5.43;;;5.70;99.90;;;;;;6215910;23;20148;-61
2022/01/30 09:33:29;;;;;;;33.65;6.75;;;5.70;99.90;;;;;;6215852;23;20203;-61
2022/01/30 09:35:55;;;;;;;26.63;5.55;;;5.70;99.90;;;;;;6215775;23;20194;-60
2022/01/30 09:38:20;;;;;;;22.30;5.43;;;5.70;99.90;;;;;;6215755;23;20145;-59
2022/01/30 09:40:46;;;;;;;31.23;6.05;;;5.70;99.90;;;;;;6216017;23;20145;-61
2022/01/30 09:43:13;;;;;;;24.02;5.15;;;5.70;99.90;;;;;;6215689;23;20456;-61
2022/01/30 09:45:38;;;;;;;24.98;5.07;;;5.70;99.90;;;;;;6214641;23;20141;-61
2022/01/30 09:48:04;;;;;;;24.55;5.85;;;5.70;99.90;;;;;;6215939;23;20438;-61
2022/01/30 09:50:30;;;;;;;26.90;5.10;;;5.80;99.90;;;;;;6214746;23;20145;-61
2022/01/30 09:52:56;;;;;;;24.88;4.97;;;5.80;99.90;;;;;;6215860;23;20141;-61
2022/01/30 09:55:22;;;;;;;30.63;6.00;;;5.80;99.90;;;;;;6215812;23;20149;-61
2022/01/30 09:57:48;;;;;;;25.73;5.63;;;5.80;99.90;;;;;;6215903;23;20156;-60
2022/01/30 10:00:14;;;;;;;26.08;6.00;;;5.80;99.90;;;;;;6215806;23;20172;-60
2022/01/30 10:02:41;;;;;;;23.58;4.70;;;5.80;99.90;;;;;;6216268;23;20145;-60
2022/01/30 10:05:07;;;;;;;26.38;5.60;;;5.80;99.90;;;;;;6216362;23;20421;-60
2022/01/30 10:07:45;;;;;;;23.70;5.20;;;5.80;99.90;;;;;;6215893;23;20172;-60
2022/01/30 10:10:13;;;;;;;15.45;4.38;;;5.80;99.90;;;;;;6215871;23;20216;-61
2022/01/30 10:12:59;;;;;;;29.52;5.05;;;5.80;99.90;;;;;;6216042;23;20160;-61
2022/01/30 10:15:25;;;;;;;22.85;4.93;;;5.90;99.90;;;;;;6216068;23;20205;-61
2022/01/30 10:17:51;;;;;;;28.58;5.95;;;5.80;99.90;;;;;;6216107;23;20480;-61
2022/01/30 10:20:19;;;;;;;26.50;5.80;;;5.90;99.90;;;;;;6217678;23;20168;-61
2022/01/30 10:22:59;;;;;;;21.17;4.13;;;5.90;99.90;;;;;;6217529;23;20172;-60
2022/01/30 10:25:34;;;;;;;28.83;5.30;;;5.90;99.90;;;;;;6217795;23;20133;-61
2022/01/30 10:28:15;;;;;;;25.02;5.22;;;5.90;99.90;;;;;;6218037;23;20140;-61
2022/01/30 10:30:44;;;;;;;23.95;5.70;;;5.90;99.90;;;;;;6217505;23;20152;-60
2022/01/30 10:33:12;;;;;;;25.23;5.05;;;5.90;99.90;;;;;;6217989;23;20145;-60
2022/01/30 10:35:56;;;;;;;24.13;3.90;;;5.90;99.90;;;;;;6218037;23;20145;-59
2022/01/30 10:38:36;;;;;;;36.33;5.47;;;5.90;99.90;;;;;;6218007;23;20121;-60
2022/01/30 10:41:14;;;;;;;23.83;4.18;;;5.90;99.90;;;;;;6218061;23;20183;-60
2022/01/30 10:44:00;;;;;;;22.17;4.82;;;6.00;99.90;;;;;;6217946;23;20161;-60
2022/01/30 10:46:32;;;;;;;31.73;5.45;;;6.00;99.90;;;;;;6217825;23;20216;-60
2022/01/30 10:49:09;;;;;;;22.60;4.82;;;6.00;99.90;;;;;;6217441;23;20145;-61
2022/01/30 10:51:34;;;;;;;24.27;5.10;;;6.00;99.90;;;;;;6217678;23;20435;-60
2022/01/30 10:54:11;;;;;;;28.45;5.45;;;6.00;99.90;;;;;;6217636;23;20173;-60
2022/01/30 10:56:38;;;;;;;21.20;5.88;;;6.00;99.90;;;;;;6217730;23;20133;-62
2022/01/30 10:59:11;;;;;;;25.58;5.30;;;6.00;99.90;;;;;;6217290;23;20184;-61
2022/01/30 11:01:42;;;;;;;23.90;4.82;;;6.00;99.90;;;;;;6217565;23;20152;-61
2022/01/30 11:04:26;;;;;;;17.23;4.10;;;6.00;99.90;;;;;;6217269;23;20137;-61
2022/01/30 11:06:53;;;;;;;22.98;5.68;;;6.00;99.90;;;;;;6217242;23;20208;-61
2022/01/30 11:09:24;;;;;;;28.83;5.57;;;6.10;99.90;;;;;;6217621;23;20156;-60
2022/01/30 11:11:55;;;;;;;18.75;4.53;;;6.00;99.90;;;;;;6217564;23;20141;-61
2022/01/30 11:14:24;;;;;;;25.48;5.78;;;6.00;99.90;;;;;;6217491;23;20144;-61
2022/01/30 11:16:58;;;;;;;20.27;4.80;;;6.00;99.90;;;;;;6217159;23;20145;-61
2022/01/30 11:19:26;;;;;;;19.38;4.50;;;6.00;99.90;;;;;;6217351;23;20283;-61
2022/01/30 11:22:03;;;;;;;22.67;5.75;;;6.00;99.90;;;;;;6216934;23;20562;-60
2022/01/30 11:24:39;;;;;;;27.65;5.00;;;6.00;99.90;;;;;;6217089;23;20589;-60
2022/01/30 11:27:05;;;;;;;16.10;3.13;;;6.10;99.90;;;;;;6215791;23;20503;-60
2022/01/30 11:29:34;;;;;;;25.65;4.75;;;6.10;99.90;;;;;;6217357;23;20145;-61
2022/01/30 11:32:00;;;;;;;17.40;4.82;;;6.00;99.90;;;;;;6216808;23;20153;-61
2022/01/30 11:34:26;;;;;;;21.08;4.97;;;6.00;99.90;;;;;;6216067;23;20155;-58
2022/01/30 11:36:52;;;;;;;19.75;4.53;;;6.00;99.90;;;;;;6217388;23;20151;-60
2022/01/30 11:39:19;;;;;;;18.55;5.25;;;6.00;99.90;;;;;;6215987;23;20484;-59
2022/01/30 11:42:04;;;;;;;26.48;4.82;;;6.00;99.90;;;;;;6215705;23;20179;-59
2022/01/30 11:44:29;;;;;;;23.85;4.78;;;6.00;99.90;;;;;;6217557;23;20141;-59
2022/01/30 11:47:04;;;;;;;26.05;5.05;;;6.10;99.90;;;;;;6230442;23;20185;-61
2022/01/30 11:49:45;;;;;;;25.58;5.80;;;6.10;99.90;;;;;;6220344;23;20152;-61
2022/01/30 11:52:12;;;;;;;25.50;5.38;;;6.00;99.90;;;;;;6217238;23;20216;-61
2022/01/30 11:54:46;;;;;;;17.17;4.50;;;6.10;99.90;;;;;;6216832;23;20160;-59
2022/01/30 11:57:27;;;;;;;26.58;5.55;;;6.00;99.90;;;;;;6216720;23;20215;-59
2022/01/30 11:59:56;;;;;;;29.25;5.47;;;6.10;99.90;;;;;;6216761;23;20271;-60
2022/01/30 12:02:31;;;;;;;24.48;5.68;;;6.00;99.90;;;;;;6216618;23;20145;-59
2022/01/30 12:05:02;;;;;;;17.75;4.18;;;6.00;99.90;;;;;;6216978;23;20215;-61
2022/01/30 12:07:38;;;;;;;21.05;4.90;;;6.10;99.90;;;;;;6216947;23;20141;-61
2022/01/30 12:10:16;;;;;;;27.85;4.80;;;6.00;99.90;;;;;;6216519;23;20140;-61
2022/01/30 12:12:55;;;;;;;20.13;4.35;;;6.00;99.90;;;;;;6216803;23;20553;-61
2022/01/30 12:15:40;;;;;;;18.58;4.80;;;6.00;99.90;;;;;;6216720;23;20129;-60
2022/01/30 12:18:10;;;;;;;24.10;4.72;;;6.00;99.90;;;;;;6216716;23;20565;-60
2022/01/30 12:20:59;;;;;;;22.38;4.68;;;6.00;99.90;;;;;;6216404;23;20204;-60
2022/01/30 12:23:26;;;;;;;22.40;5.47;;;6.00;99.90;;;;;;6215124;23;20140;-60
2022/01/30 12:26:03;;;;;;;24.02;5.20;;;6.00;99.90;;;;;;6216310;23;20137;-59
2022/01/30 12:28:43;;;;;;;25.95;4.47;;;6.00;99.90;;;;;;6216795;23;20216;-59
2022/01/30 12:31:25;;;;;;;23.20;4.47;;;6.00;99.90;;;;;;6216500;23;20170;-59
2022/01/30 12:34:14;;;;;;;23.00;4.55;;;6.10;99.90;;;;;;6216685;23;20148;-61
2022/01/30 12:36:51;;;;;;;21.50;3.90;;;6.10;99.90;;;;;;6215084;23;20451;-59
2022/01/30 12:39:18;;;;;;;26.80;5.10;;;6.00;99.90;;;;;;6216309;23;20438;-59
2022/01/30 12:41:44;;;;;;;22.10;5.03;;;6.00;99.90;;;;;;6216109;23;20545;-60
2022/01/30 12:44:15;;;;;;;18.15;4.57;;;6.00;99.90;;;;;;6216459;23;20191;-60
2022/01/30 12:46:47;;;;;;;22.27;4.07;;;6.00;99.90;;;;;;6216702;23;20156;-60
2022/01/30 12:49:19;;;;;;;24.20;5.28;;;6.00;99.90;;;;;;6216531;23;20145;-60
2022/01/30 12:51:50;;;;;;;23.98;4.57;;;6.00;99.90;;;;;;6216459;23;20144;-60
2022/01/30 12:54:21;;;;;;;23.63;5.20;;;6.00;99.90;;;;;;6216440;23;20429;-61
2022/01/30 12:56:48;;;;;;;27.38;5.45;;;6.00;99.90;;;;;;6217015;23;20448;-60
2022/01/30 12:59:15;;;;;;;24.55;5.22;;;6.00;99.90;;;;;;6216043;23;20581;-61
2022/01/30 13:01:43;;;;;;;35.45;5.22;;;6.00;99.90;;;;;;6216348;23;20177;-60
2022/01/30 13:04:17;;;;;;;21.80;4.15;;;5.90;99.90;;;;;;6216050;23;20141;-61
2022/01/30 13:06:45;;;;;;;28.52;5.45;;;5.90;99.90;;;;;;6216444;23;20134;-61
2022/01/30 13:09:12;;;;;;;19.08;4.40;;;5.90;99.90;;;;;;6215746;23;20452;-61
2022/01/30 13:11:38;;;;;;;26.58;5.35;;;5.90;99.90;;;;;;6214656;23;20164;-61
2022/01/30 13:14:08;;;;;;;18.02;4.50;;;5.90;99.90;;;;;;6215852;23;20156;-61
2022/01/30 13:16:46;;;;;;;18.15;4.22;;;5.90;99.90;;;;;;6216316;23;20149;-62
2022/01/30 13:19:13;;;;;;;22.08;4.53;;;5.90;99.90;;;;;;6215929;23;20196;-60
2022/01/30 13:21:43;;;;;;;25.58;4.40;;;5.90;99.90;;;;;;6216171;23;20160;-62
2022/01/30 13:24:09;;;;;;;20.40;4.95;;;5.90;99.90;;;;;;6216311;23;20160;-61
2022/01/30 13:26:43;;;;;;;22.83;5.43;;;5.90;99.90;;;;;;6216007;23;20458;-63
2022/01/30 13:29:15;;;;;;;21.77;4.10;;;5.80;99.90;;;;;;6216288;23;20149;-61
2022/01/30 13:31:42;;;;;;;13.98;3.80;;;5.80;99.90;;;;;;6216286;23;20129;-61
2022/01/30 13:34:12;;;;;;;24.27;4.82;;;5.80;99.90;;;;;;6216369;23;20149;-62
2022/01/30 13:36:39;;;;;;;15.60;4.60;;;5.80;99.90;;;;;;6216203;23;20148;-61
2022/01/30 13:39:10;;;;;;;19.65;4.13;;;5.70;99.90;;;;;;6215977;23;20173;-63
2022/01/30 13:41:44;;;;;;;17.95;3.25;;;5.70;99.90;;;;;;6215776;23;20552;-62
2022/01/30 13:44:22;;;;;;;18.40;3.90;;;5.70;99.90;;;;;;6216200;23;20212;-62
2022/01/30 13:47:02;;;;;;;17.92;4.57;;;5.70;99.90;;;;;;6216700;23;20376;-61
2022/01/30 13:49:28;;;;;;;24.20;4.65;;;5.70;99.90;;;;;;6215424;23;20159;-60